createdAt,value
2018-08-11T00:00:22.048Z,12.40
2018-08-11T00:02:50.706Z,12.40
2018-08-11T00:05:18.949Z,12.30
2018-08-11T00:07:47.719Z,12.30
2018-08-11T00:10:15.957Z,12.20
2018-08-11T00:12:44.446Z,12.30
2018-08-11T00:15:15.148Z,12.20
2018-08-11T00:17:44.581Z,12.10
2018-08-11T00:20:14.358Z,11.90
2018-08-11T00:22:43.174Z,11.80
2018-08-11T00:25:13.889Z,11.70
2018-08-11T00:27:42.167Z,11.60
2018-08-11T00:30:14.141Z,11.40
2018-08-11T00:32:42.373Z,11.40
2018-08-11T00:35:12.435Z,11.30
2018-08-11T00:37:41.118Z,11.30
2018-08-11T00:40:13.168Z,11.30
2018-08-11T00:42:42.329Z,11.40
2018-08-11T00:45:11.977Z,11.60
2018-08-11T00:47:40.315Z,11.80
2018-08-11T00:50:13.433Z,11.90
2018-08-11T00:52:41.753Z,12.00
2018-08-11T00:55:11.754Z,12.00
2018-08-11T00:57:40.129Z,12.10
2018-08-11T01:00:11.081Z,12.00
2018-08-11T01:02:39.933Z,12.00
2018-08-11T01:05:11.166Z,12.00
2018-08-11T01:07:39.994Z,12.00
2018-08-11T01:10:09.078Z,12.00
2018-08-11T01:12:38.026Z,12.10
2018-08-11T01:15:07.909Z,12.20
2018-08-11T01:17:36.155Z,12.30
2018-08-11T01:20:06.963Z,12.40
2018-08-11T01:22:35.190Z,12.60
2018-08-11T01:25:04.006Z,12.70
2018-08-11T01:27:32.201Z,12.90
2018-08-11T01:30:00.470Z,13.00
2018-08-11T01:32:28.648Z,13.10
2018-08-11T01:34:56.841Z,13.20
2018-08-11T01:37:25.837Z,13.30
2018-08-11T01:39:54.169Z,13.40
2018-08-11T01:42:22.922Z,13.40
2018-08-11T01:44:51.101Z,13.40
2018-08-11T01:47:19.505Z,13.40
2018-08-11T01:49:47.710Z,13.50
2018-08-11T01:52:15.909Z,13.50
2018-08-11T01:54:44.123Z,13.50
2018-08-11T01:57:12.330Z,13.50
2018-08-11T01:59:40.586Z,13.60
2018-08-11T02:02:08.849Z,13.70
2018-08-11T02:04:36.982Z,13.70
2018-08-11T02:07:05.590Z,13.70
2018-08-11T02:09:33.797Z,13.80
2018-08-11T02:12:02.150Z,13.80
2018-08-11T02:14:30.358Z,13.80
2018-08-11T02:16:58.591Z,13.90
2018-08-11T02:19:26.789Z,13.90
2018-08-11T02:21:55.008Z,13.90
2018-08-11T02:24:23.337Z,13.90
2018-08-11T02:26:51.600Z,13.90
2018-08-11T02:29:19.903Z,13.90
2018-08-11T02:31:48.341Z,13.80
2018-08-11T02:34:16.591Z,13.70
2018-08-11T02:36:44.753Z,13.70
2018-08-11T02:39:14.865Z,13.70
2018-08-11T02:41:43.377Z,13.60
2018-08-11T02:44:11.977Z,13.70
2018-08-11T02:46:40.144Z,13.70
2018-08-11T02:49:09.155Z,13.70
2018-08-11T02:51:37.350Z,13.70
2018-08-11T02:54:05.746Z,13.70
2018-08-11T02:56:34.282Z,13.70
2018-08-11T02:59:02.879Z,13.70
2018-08-11T03:01:31.345Z,13.60
2018-08-11T03:03:59.490Z,13.60
2018-08-11T03:06:27.678Z,13.50
2018-08-11T03:08:55.903Z,13.40
2018-08-11T03:11:24.079Z,13.40
2018-08-11T03:13:52.317Z,13.40
2018-08-11T03:16:20.509Z,13.30
2018-08-11T03:18:48.686Z,13.20
2018-08-11T03:21:16.901Z,13.20
2018-08-11T03:23:46.005Z,13.20
2018-08-11T03:26:14.246Z,13.20
2018-08-11T03:28:42.447Z,13.20
2018-08-11T03:31:10.577Z,13.10
2018-08-11T03:33:38.787Z,13.10
2018-08-11T03:36:06.684Z,13.00
2018-08-11T03:38:35.051Z,13.00
2018-08-11T03:41:03.232Z,13.00
2018-08-11T03:43:31.396Z,13.00
2018-08-11T03:45:59.582Z,13.10
2018-08-11T03:48:27.737Z,13.20
2018-08-11T03:50:55.894Z,13.30
2018-08-11T03:53:24.052Z,13.30
2018-08-11T03:55:52.262Z,13.20
2018-08-11T03:58:20.455Z,13.20
2018-08-11T04:00:48.626Z,13.20
2018-08-11T04:03:16.797Z,13.20
2018-08-11T04:05:45.745Z,13.30
2018-08-11T04:08:13.905Z,13.40
2018-08-11T04:10:42.099Z,13.50
2018-08-11T04:13:10.277Z,13.50
2018-08-11T04:15:38.492Z,13.40
2018-08-11T04:18:06.700Z,13.40
2018-08-11T04:20:34.901Z,13.30
2018-08-11T04:23:03.121Z,13.20
2018-08-11T04:25:31.373Z,13.20
2018-08-11T04:27:59.548Z,13.10
2018-08-11T04:30:27.826Z,13.10
2018-08-11T04:32:56.022Z,13.00
2018-08-11T04:35:24.216Z,13.00
2018-08-11T04:37:52.753Z,13.10
2018-08-11T04:40:21.190Z,13.10
2018-08-11T04:42:49.329Z,13.20
2018-08-11T04:45:17.503Z,13.30
2018-08-11T04:47:45.676Z,13.50
2018-08-11T04:50:13.867Z,13.60
2018-08-11T04:52:42.306Z,13.80
2018-08-11T04:55:10.485Z,14.00
2018-08-11T04:57:38.658Z,14.20
2018-08-11T05:00:07.844Z,14.40
2018-08-11T05:02:36.421Z,14.60
2018-08-11T05:05:05.178Z,14.90
2018-08-11T05:07:33.386Z,15.10
2018-08-11T05:10:01.574Z,15.40
2018-08-11T05:12:29.958Z,15.70
2018-08-11T05:14:58.125Z,16.00
2018-08-11T05:17:28.190Z,16.20
2018-08-11T05:19:57.127Z,16.30
2018-08-11T05:22:25.802Z,16.50
2018-08-11T05:24:54.001Z,16.60
2018-08-11T05:27:22.210Z,16.60
2018-08-11T05:29:50.416Z,16.60
2018-08-11T05:32:18.642Z,16.70
2018-08-11T05:34:46.917Z,16.80
2018-08-11T05:37:15.162Z,17.00
2018-08-11T05:39:43.363Z,17.40
2018-08-11T05:42:11.541Z,17.90
2018-08-11T05:44:39.761Z,18.30
2018-08-11T05:47:07.965Z,18.40
2018-08-11T05:49:36.450Z,18.60
2018-08-11T05:52:04.701Z,18.90
2018-08-11T05:54:32.914Z,19.20
2018-08-11T05:57:01.151Z,19.50
2018-08-11T05:59:29.349Z,20.20
2018-08-11T06:01:57.551Z,20.20
2018-08-11T06:04:25.945Z,20.10
2018-08-11T06:06:54.208Z,20.00
2018-08-11T06:09:22.417Z,20.10
2018-08-11T06:11:50.598Z,20.70
2018-08-11T06:14:18.786Z,21.70
2018-08-11T06:16:47.214Z,22.10
2018-08-11T06:19:15.368Z,21.60
2018-08-11T06:21:43.588Z,20.60
2018-08-11T06:24:12.665Z,19.70
2018-08-11T06:26:40.856Z,18.80
2018-08-11T06:29:09.008Z,18.10
2018-08-11T06:31:37.415Z,17.60
2018-08-11T06:34:05.462Z,17.30
2018-08-11T06:36:33.605Z,17.30
2018-08-11T06:39:01.791Z,17.30
2018-08-11T06:41:30.616Z,17.50
2018-08-11T06:43:58.762Z,17.90
2018-08-11T06:46:26.959Z,17.90
2018-08-11T06:48:55.145Z,18.00
2018-08-11T06:51:23.313Z,18.10
2018-08-11T06:53:51.467Z,18.20
2018-08-11T06:56:19.689Z,18.30
2018-08-11T06:58:47.847Z,18.50
2018-08-11T07:01:16.382Z,18.60
2018-08-11T07:03:44.553Z,18.90
2018-08-11T07:06:12.734Z,19.70
2018-08-11T07:08:40.970Z,20.40
2018-08-11T07:11:09.205Z,21.20
2018-08-11T07:13:37.449Z,23.10
2018-08-11T07:16:05.630Z,24.20
2018-08-11T07:18:33.914Z,24.90
2018-08-11T07:21:03.088Z,24.10
2018-08-11T07:23:31.282Z,22.60
2018-08-11T07:25:59.565Z,21.20
2018-08-11T07:28:28.140Z,20.10
2018-08-11T07:30:56.354Z,19.60
2018-08-11T07:33:24.669Z,19.50
2018-08-11T07:35:52.944Z,20.00
2018-08-11T07:38:21.212Z,21.30
2018-08-11T07:40:49.386Z,22.30
2018-08-11T07:43:17.815Z,23.10
2018-08-11T07:45:45.970Z,23.40
2018-08-11T07:48:14.251Z,23.30
2018-08-11T07:50:42.726Z,24.00
2018-08-11T07:53:10.972Z,24.30
2018-08-11T07:55:39.205Z,24.80
2018-08-11T07:58:07.430Z,24.60
2018-08-11T08:00:35.689Z,24.40
2018-08-11T08:03:04.392Z,24.50
2018-08-11T08:05:32.609Z,24.50
2018-08-11T08:08:00.874Z,23.90
2018-08-11T08:10:29.224Z,23.80
2018-08-11T08:12:57.422Z,24.40
2018-08-11T08:15:25.650Z,24.80
2018-08-11T08:17:54.260Z,25.10
2018-08-11T08:20:22.506Z,24.60
2018-08-11T08:22:50.727Z,24.30
2018-08-11T08:25:18.984Z,24.50
2018-08-11T08:27:49.109Z,24.50
2018-08-11T08:30:17.834Z,24.80
2018-08-11T08:32:46.075Z,24.80
2018-08-11T08:35:14.317Z,24.80
2018-08-11T08:37:42.478Z,25.00
2018-08-11T08:40:10.770Z,25.10
2018-08-11T08:42:39.032Z,25.50
2018-08-11T08:45:08.603Z,25.70
2018-08-11T08:47:36.872Z,25.50
2018-08-11T08:50:07.033Z,24.60
2018-08-11T08:52:35.246Z,24.40
2018-08-11T08:55:03.543Z,25.00
2018-08-11T08:57:31.793Z,25.30
2018-08-11T09:00:00.797Z,24.80
2018-08-11T09:02:28.987Z,24.50
2018-08-11T09:04:57.366Z,24.60
2018-08-11T09:07:25.493Z,24.70
2018-08-11T09:09:53.882Z,24.90
2018-08-11T09:12:23.090Z,24.90
2018-08-11T09:14:51.247Z,24.70
2018-08-11T09:17:19.462Z,24.30
2018-08-11T09:19:47.677Z,23.70
2018-08-11T09:22:15.951Z,24.20
2018-08-11T09:24:44.157Z,25.00
2018-08-11T09:27:12.574Z,25.70
2018-08-11T09:29:40.735Z,26.50
2018-08-11T09:32:08.877Z,27.20
2018-08-11T09:34:37.097Z,27.10
2018-08-11T09:37:05.374Z,26.60
2018-08-11T09:39:33.598Z,26.50
2018-08-11T09:42:01.873Z,26.60
2018-08-11T09:44:30.097Z,25.80
2018-08-11T09:46:58.269Z,26.00
2018-08-11T09:49:26.412Z,26.50
2018-08-11T09:51:54.692Z,26.70
2018-08-11T09:54:22.952Z,27.40
2018-08-11T09:56:51.340Z,26.70
2018-08-11T09:59:19.537Z,25.90
2018-08-11T10:01:52.562Z,26.00
2018-08-11T10:04:21.472Z,26.70
2018-08-11T10:06:49.657Z,27.00
2018-08-11T10:09:17.876Z,27.30
2018-08-11T10:11:46.096Z,26.70
2018-08-11T10:14:14.380Z,27.20
2018-08-11T10:16:42.542Z,27.40
2018-08-11T10:19:11.640Z,27.80
2018-08-11T10:21:39.828Z,28.40
2018-08-11T10:24:08.021Z,28.80
2018-08-11T10:26:36.247Z,29.00
2018-08-11T10:29:04.464Z,29.30
2018-08-11T10:31:32.684Z,29.70
2018-08-11T10:34:00.886Z,30.00
2018-08-11T10:36:29.104Z,29.80
2018-08-11T10:38:57.334Z,28.90
2018-08-11T10:41:27.469Z,28.10
2018-08-11T10:43:55.994Z,28.10
2018-08-11T10:46:24.167Z,27.50
2018-08-11T10:48:52.351Z,27.90
2018-08-11T10:51:20.510Z,28.10
2018-08-11T10:53:48.742Z,27.60
2018-08-11T10:56:16.918Z,28.10
2018-08-11T10:58:45.101Z,27.70
2018-08-11T11:01:13.290Z,27.20
2018-08-11T11:03:41.444Z,27.50
2018-08-11T11:06:09.735Z,27.30
2018-08-11T11:08:37.993Z,26.80
2018-08-11T11:11:06.142Z,26.80
2018-08-11T11:13:34.362Z,27.20
2018-08-11T11:16:03.333Z,27.70
2018-08-11T11:18:31.994Z,27.80
2018-08-11T11:21:00.182Z,26.90
2018-08-11T11:23:28.768Z,25.80
2018-08-11T11:25:57.043Z,24.90
2018-08-11T11:28:25.230Z,25.10
2018-08-11T11:30:53.421Z,26.00
2018-08-11T11:33:21.686Z,26.90
2018-08-11T11:35:49.854Z,26.70
2018-08-11T11:38:18.064Z,26.50
2018-08-11T11:40:46.258Z,27.40
2018-08-11T11:43:14.443Z,27.60
2018-08-11T11:45:42.950Z,28.20
2018-08-11T11:48:11.179Z,28.30
2018-08-11T11:50:39.502Z,27.30
2018-08-11T11:53:07.718Z,26.90
2018-08-11T11:55:35.961Z,26.80
2018-08-11T11:58:04.158Z,26.90
2018-08-11T12:00:32.551Z,27.10
2018-08-11T12:03:00.818Z,27.50
2018-08-11T12:05:29.334Z,27.90
2018-08-11T12:07:57.526Z,28.30
2018-08-11T12:10:25.700Z,28.70
2018-08-11T12:12:53.914Z,29.10
2018-08-11T12:15:22.131Z,29.20
2018-08-11T12:17:50.379Z,29.60
2018-08-11T12:20:20.442Z,29.90
2018-08-11T12:22:49.030Z,30.10
2018-08-11T12:25:17.265Z,30.00
2018-08-11T12:27:45.598Z,30.00
2018-08-11T12:30:13.899Z,30.10
2018-08-11T12:32:42.054Z,29.50
2018-08-11T12:35:10.278Z,28.50
2018-08-11T12:37:38.479Z,27.70
2018-08-11T12:40:06.709Z,27.70
2018-08-11T12:42:35.209Z,27.40
2018-08-11T12:45:03.508Z,27.70
2018-08-11T12:47:31.736Z,28.20
2018-08-11T12:49:59.908Z,28.40
2018-08-11T12:52:28.066Z,28.50
2018-08-11T12:54:56.324Z,28.80
2018-08-11T12:57:24.837Z,28.60
2018-08-11T12:59:53.010Z,28.70
2018-08-11T13:02:21.186Z,28.60
2018-08-11T13:04:49.401Z,29.00
2018-08-11T13:07:17.609Z,29.10
2018-08-11T13:09:46.038Z,28.50
2018-08-11T13:12:14.237Z,28.10
2018-08-11T13:14:42.468Z,27.70
2018-08-11T13:17:10.594Z,28.00
2018-08-11T13:19:38.750Z,28.20
2018-08-11T13:22:06.949Z,28.50
2018-08-11T13:24:35.514Z,28.20
2018-08-11T13:27:03.846Z,28.00
2018-08-11T13:29:32.043Z,28.40
2018-08-11T13:32:00.269Z,28.50
2018-08-11T13:34:28.578Z,28.30
2018-08-11T13:36:56.737Z,28.00
2018-08-11T13:39:24.957Z,28.20
2018-08-11T13:41:53.148Z,28.60
2018-08-11T13:44:21.319Z,29.00
2018-08-11T13:46:49.483Z,29.20
2018-08-11T13:49:17.767Z,29.70
2018-08-11T13:51:45.950Z,30.00
2018-08-11T13:54:14.145Z,30.30
2018-08-11T13:56:42.422Z,29.70
2018-08-11T13:59:10.655Z,29.30
2018-08-11T14:01:39.033Z,29.10
2018-08-11T14:04:07.362Z,29.20
2018-08-11T14:06:35.571Z,29.50
2018-08-11T14:09:05.718Z,29.70
2018-08-11T14:11:33.840Z,30.10
2018-08-11T14:14:01.991Z,30.00
2018-08-11T14:16:30.208Z,29.90
2018-08-11T14:18:58.686Z,30.20
2018-08-11T14:21:26.899Z,29.90
2018-08-11T14:23:55.073Z,29.50
2018-08-11T14:26:23.269Z,29.50
2018-08-11T14:28:51.722Z,29.80
2018-08-11T14:31:21.305Z,30.50
2018-08-11T14:33:49.964Z,31.10
2018-08-11T14:36:18.243Z,31.00
2018-08-11T14:38:46.448Z,31.60
2018-08-11T14:41:14.676Z,31.50
2018-08-11T14:43:42.908Z,32.10
2018-08-11T14:46:11.104Z,32.80
2018-08-11T14:48:39.480Z,33.20
2018-08-11T14:51:07.752Z,33.40
2018-08-11T14:53:35.969Z,32.90
2018-08-11T14:56:04.263Z,31.70
2018-08-11T14:58:32.406Z,30.00
2018-08-11T15:01:00.854Z,29.70
2018-08-11T15:03:29.022Z,30.70
2018-08-11T15:05:57.941Z,31.20
2018-08-11T15:08:26.114Z,30.50
2018-08-11T15:10:54.323Z,30.00
2018-08-11T15:13:22.558Z,31.00
2018-08-11T15:15:51.603Z,31.30
2018-08-11T15:18:19.785Z,30.50
2018-08-11T15:20:48.606Z,30.30
2018-08-11T15:23:16.825Z,29.90
2018-08-11T15:25:45.739Z,29.30
2018-08-11T15:28:13.890Z,28.50
2018-08-11T15:30:42.186Z,28.70
2018-08-11T15:33:10.589Z,29.50
2018-08-11T15:35:38.770Z,30.40
2018-08-11T15:38:07.047Z,31.30
2018-08-11T15:40:35.716Z,31.90
2018-08-11T15:43:03.895Z,32.00
2018-08-11T15:45:32.129Z,32.00
2018-08-11T15:48:00.327Z,31.70
2018-08-11T15:50:28.545Z,31.30
2018-08-11T15:52:56.979Z,30.70
2018-08-11T15:55:25.192Z,30.40
2018-08-11T15:57:53.699Z,30.10
2018-08-11T16:00:21.870Z,30.00
2018-08-11T16:02:50.075Z,30.00
2018-08-11T16:05:18.238Z,29.90
2018-08-11T16:07:46.434Z,29.90
2018-08-11T16:10:14.715Z,30.10
2018-08-11T16:12:42.865Z,30.30
2018-08-11T16:15:11.079Z,29.90
2018-08-11T16:17:39.590Z,29.60
2018-08-11T16:20:07.783Z,29.50
2018-08-11T16:22:35.997Z,29.90
2018-08-11T16:25:04.697Z,29.70
2018-08-11T16:27:32.876Z,29.60
2018-08-11T16:30:01.046Z,29.30
2018-08-11T16:32:29.242Z,29.50
2018-08-11T16:34:57.429Z,28.90
2018-08-11T16:37:25.605Z,28.60
2018-08-11T16:39:53.834Z,28.10
2018-08-11T16:42:22.009Z,28.20
2018-08-11T16:47:29.211Z,28.00
2018-08-11T16:49:57.488Z,27.50
2018-08-11T16:52:25.763Z,27.60
2018-08-11T16:54:53.997Z,27.70
2018-08-11T16:57:22.278Z,27.70
2018-08-11T16:59:50.617Z,27.60
2018-08-11T17:02:18.874Z,27.10
2018-08-11T17:04:47.085Z,26.50
2018-08-11T17:07:15.282Z,26.20
2018-08-11T17:09:43.496Z,25.80
2018-08-11T17:12:11.693Z,25.40
2018-08-11T17:14:39.933Z,25.10
2018-08-11T17:17:08.817Z,24.80
2018-08-11T17:19:37.029Z,24.70
2018-08-11T17:22:05.330Z,24.50
2018-08-11T17:24:33.554Z,24.30
2018-08-11T17:27:01.788Z,24.20
2018-08-11T17:29:29.955Z,24.10
2018-08-11T17:31:58.195Z,24.00
2018-08-11T17:34:26.423Z,24.00
2018-08-11T17:36:54.613Z,23.90
2018-08-11T17:39:22.881Z,23.80
2018-08-11T17:41:51.125Z,23.50
2018-08-11T17:44:19.314Z,23.30
2018-08-11T17:46:47.472Z,23.20
2018-08-11T17:49:15.692Z,23.00
2018-08-11T17:51:43.949Z,22.90
2018-08-11T17:54:12.095Z,22.70
2018-08-11T17:56:40.448Z,22.60
2018-08-11T17:59:08.674Z,22.50
2018-08-11T18:01:36.957Z,22.40
2018-08-11T18:04:05.274Z,22.30
2018-08-11T18:06:33.463Z,22.10
2018-08-11T18:09:01.802Z,22.00
2018-08-11T18:11:30.037Z,21.90
2018-08-11T18:13:58.390Z,21.80
2018-08-11T18:16:26.707Z,21.70
2018-08-11T18:18:55.628Z,21.60
2018-08-11T18:21:23.915Z,21.50
2018-08-11T18:23:52.105Z,21.30
2018-08-11T18:26:20.269Z,21.20
2018-08-11T18:28:48.472Z,21.00
2018-08-11T18:31:16.699Z,20.80
2018-08-11T18:33:45.091Z,20.60
2018-08-11T18:36:16.939Z,20.30
2018-08-11T18:38:45.138Z,20.10
2018-08-11T18:41:13.293Z,19.80
2018-08-11T18:43:41.518Z,19.60
2018-08-11T18:46:09.704Z,19.30
2018-08-11T18:48:37.902Z,19.20
2018-08-11T18:51:06.417Z,19.00
2018-08-11T18:53:34.885Z,18.80
2018-08-11T18:56:03.850Z,18.70
2018-08-11T18:58:32.101Z,18.60
2018-08-11T19:01:00.867Z,18.30
2018-08-11T19:03:29.008Z,18.10
2018-08-11T19:05:57.174Z,17.90
2018-08-11T19:08:25.337Z,17.70
2018-08-11T19:10:53.560Z,17.50
2018-08-11T19:13:21.765Z,17.30
2018-08-11T19:15:49.935Z,17.10
2018-08-11T19:18:18.214Z,17.00
2018-08-11T19:20:46.403Z,16.80
2018-08-11T19:23:14.609Z,16.60
2018-08-11T19:25:42.915Z,16.50
2018-08-11T19:28:11.133Z,16.30
2018-08-11T19:30:39.338Z,16.20
2018-08-11T19:33:07.538Z,16.20
2018-08-11T19:35:35.715Z,16.10
2018-08-11T19:38:03.983Z,16.00
2018-08-11T19:40:32.155Z,15.80
2018-08-11T19:43:00.419Z,15.80
2018-08-11T19:45:28.678Z,15.70
2018-08-11T19:47:56.885Z,15.70
2018-08-11T19:50:25.072Z,15.70
2018-08-11T19:52:55.201Z,15.60
2018-08-11T19:55:23.411Z,15.50
2018-08-11T19:57:51.597Z,15.30
2018-08-11T20:00:19.862Z,15.10
2018-08-11T20:02:48.092Z,15.00
2018-08-11T20:05:16.300Z,15.00
2018-08-11T20:07:44.630Z,14.90
2018-08-11T20:10:12.889Z,14.80
2018-08-11T20:12:41.146Z,14.70
2018-08-11T20:15:09.994Z,14.60
2018-08-11T20:17:38.330Z,14.50
2018-08-11T20:20:07.971Z,14.40
2018-08-11T20:22:36.118Z,14.30
2018-08-11T20:25:04.633Z,14.30
2018-08-11T20:27:32.758Z,14.30
2018-08-11T20:30:00.927Z,14.20
2018-08-11T20:32:29.125Z,14.20
2018-08-11T20:34:57.292Z,14.10
2018-08-11T20:37:25.506Z,14.10
2018-08-11T20:39:54.038Z,14.00
2018-08-11T20:42:22.275Z,14.00
2018-08-11T20:44:51.487Z,13.90
2018-08-11T20:47:19.679Z,13.80
2018-08-11T20:49:47.825Z,13.70
2018-08-11T20:52:16.074Z,13.70
2018-08-11T20:54:44.306Z,13.60
2018-08-11T20:57:12.500Z,13.60
2018-08-11T20:59:40.709Z,13.40
2018-08-11T21:02:08.938Z,13.30
2018-08-11T21:04:37.151Z,13.20
2018-08-11T21:07:05.330Z,13.20
2018-08-11T21:09:33.551Z,13.20
2018-08-11T21:12:01.794Z,13.20
2018-08-11T21:14:29.991Z,13.10
2018-08-11T21:16:58.722Z,13.00
2018-08-11T21:19:26.952Z,13.00
2018-08-11T21:21:55.110Z,12.90
2018-08-11T21:24:23.323Z,12.80
2018-08-11T21:26:51.589Z,12.70
2018-08-11T21:29:19.761Z,12.60
2018-08-11T21:31:47.937Z,12.60
2018-08-11T21:34:17.896Z,12.50
2018-08-11T21:36:46.033Z,12.40
2018-08-11T21:39:14.668Z,12.40
2018-08-11T21:41:43.125Z,12.40
2018-08-11T21:44:11.366Z,12.30
2018-08-11T21:46:39.535Z,12.40
2018-08-11T21:49:08.867Z,12.40
2018-08-11T21:51:37.114Z,12.40
2018-08-11T21:54:05.598Z,12.50
2018-08-11T21:56:33.984Z,12.60
2018-08-11T21:59:02.352Z,12.70
2018-08-11T22:01:31.693Z,12.70
2018-08-11T22:03:59.918Z,12.60
2018-08-11T22:06:28.112Z,12.50
2018-08-11T22:08:56.369Z,12.30
2018-08-11T22:11:24.546Z,12.20
2018-08-11T22:13:52.717Z,12.20
2018-08-11T22:16:20.930Z,12.20
2018-08-11T22:18:49.167Z,12.20
2018-08-11T22:21:17.353Z,12.00
2018-08-11T22:23:47.370Z,12.00
2018-08-11T22:26:15.635Z,11.80
2018-08-11T22:28:43.810Z,11.70
2018-08-11T22:31:12.752Z,11.50
2018-08-11T22:33:41.586Z,11.40
2018-08-11T22:36:09.779Z,11.40
2018-08-11T22:38:38.016Z,11.30
2018-08-11T22:41:06.197Z,11.30
2018-08-11T22:43:34.766Z,11.30
2018-08-11T22:46:03.166Z,11.30
2018-08-11T22:48:31.534Z,11.20
2018-08-11T22:50:59.678Z,11.30
2018-08-11T22:53:27.894Z,11.40
2018-08-11T22:55:56.066Z,11.60
2018-08-11T22:58:24.272Z,11.70
2018-08-11T23:00:52.491Z,11.80
2018-08-11T23:03:20.705Z,11.90
2018-08-11T23:05:48.889Z,11.90
2018-08-11T23:08:17.048Z,11.80
2018-08-11T23:10:45.417Z,11.80
2018-08-11T23:13:13.638Z,11.80
2018-08-11T23:15:41.890Z,11.80
2018-08-11T23:18:10.052Z,11.70
2018-08-11T23:20:38.224Z,11.60
2018-08-11T23:23:06.382Z,11.50
2018-08-11T23:25:34.582Z,11.40
2018-08-11T23:28:02.797Z,11.20
2018-08-11T23:30:31.456Z,11.10
2018-08-11T23:32:59.608Z,11.00
2018-08-11T23:35:27.810Z,10.90
2018-08-11T23:37:56.033Z,10.70
2018-08-11T23:40:24.221Z,10.60
2018-08-11T23:42:52.410Z,10.70
2018-08-11T23:45:20.622Z,10.70
2018-08-11T23:47:48.809Z,10.60
2018-08-11T23:50:16.978Z,10.50
2018-08-11T23:52:45.476Z,10.40
2018-08-11T23:55:14.253Z,10.30
2018-08-11T23:57:42.619Z,10.10
